createdAt,value
2019-03-24T00:00:17.152Z,67.28
2019-03-24T00:03:43.002Z,67.14
2019-03-24T00:07:07.352Z,67.84
2019-03-24T00:10:31.335Z,68.67
2019-03-24T00:13:55.529Z,68.56
2019-03-24T00:17:20.208Z,68.12
2019-03-24T00:20:44.259Z,67.85
2019-03-24T00:24:08.246Z,66.92
2019-03-24T00:27:32.308Z,68.47
2019-03-24T00:30:56.449Z,67.80
2019-03-24T00:34:20.569Z,68.40
2019-03-24T00:37:44.891Z,67.24
2019-03-24T00:41:08.951Z,68.07
2019-03-24T00:44:33.014Z,67.28
2019-03-24T00:47:58.352Z,67.55
2019-03-24T00:51:22.512Z,67.38
2019-03-24T00:54:46.458Z,66.83
2019-03-24T00:58:11.156Z,66.94
2019-03-24T01:01:35.074Z,67.58
2019-03-24T01:04:59.443Z,67.78
2019-03-24T01:08:23.374Z,67.48
2019-03-24T01:11:47.704Z,68.32
2019-03-24T01:15:11.902Z,68.06
2019-03-24T01:18:36.030Z,67.96
2019-03-24T01:21:59.992Z,68.26
2019-03-24T01:25:23.982Z,68.31
2019-03-24T01:28:47.907Z,68.07
2019-03-24T01:32:11.944Z,68.08
2019-03-24T01:35:36.072Z,68.04
2019-03-24T01:39:00.044Z,67.82
2019-03-24T01:42:24.163Z,68.36
2019-03-24T01:45:57.937Z,68.15
2019-03-24T01:49:14.063Z,68.39
2019-03-24T01:52:38.074Z,69.42
2019-03-24T01:56:02.473Z,68.73
2019-03-24T01:59:26.861Z,68.76
2019-03-24T02:02:50.796Z,68.53
2019-03-24T02:06:14.786Z,68.71
2019-03-24T02:09:38.761Z,69.11
2019-03-24T02:13:03.101Z,68.68
2019-03-24T02:16:28.113Z,68.79
2019-03-24T02:19:52.042Z,68.63
2019-03-24T02:23:16.275Z,69.64
2019-03-24T02:26:40.380Z,69.06
2019-03-24T02:30:05.363Z,69.78
2019-03-24T02:33:29.981Z,69.05
2019-03-24T02:36:53.980Z,68.91
2019-03-24T02:40:17.935Z,68.73
2019-03-24T02:43:41.836Z,69.15
2019-03-24T02:47:05.780Z,70.12
2019-03-24T02:50:29.887Z,69.53
2019-03-24T02:53:54.066Z,69.73
2019-03-24T02:57:17.995Z,69.77
2019-03-24T03:00:42.998Z,69.68
2019-03-24T03:04:06.948Z,70.20
2019-03-24T03:07:30.881Z,69.18
2019-03-24T03:10:54.764Z,70.24
2019-03-24T03:14:18.817Z,70.27
2019-03-24T03:17:42.903Z,70.04
2019-03-24T03:21:06.931Z,69.33
2019-03-24T03:24:30.858Z,69.47
2019-03-24T03:27:54.728Z,69.02
2019-03-24T03:31:18.754Z,69.00
2019-03-24T03:34:42.662Z,68.71
2019-03-24T03:38:06.668Z,68.84
2019-03-24T03:41:30.655Z,68.72
2019-03-24T03:44:54.823Z,68.16
2019-03-24T03:48:18.876Z,68.08
2019-03-24T03:51:42.891Z,68.69
2019-03-24T03:55:07.077Z,68.45
2019-03-24T03:58:31.124Z,68.75
2019-03-24T04:01:55.501Z,68.39
2019-03-24T04:05:19.430Z,68.34
2019-03-24T04:08:43.419Z,68.59
2019-03-24T04:12:07.332Z,68.75
2019-03-24T04:15:31.232Z,67.66
2019-03-24T04:18:55.409Z,67.67
2019-03-24T04:22:19.843Z,67.15
2019-03-24T04:25:43.776Z,67.39
2019-03-24T04:29:07.895Z,67.88
2019-03-24T04:32:31.927Z,67.29
2019-03-24T04:35:57.059Z,67.24
2019-03-24T04:39:21.195Z,67.01
2019-03-24T04:42:45.135Z,66.85
2019-03-24T04:46:09.115Z,67.08
2019-03-24T04:49:33.088Z,66.50
2019-03-24T04:52:57.016Z,66.09
2019-03-24T04:56:21.298Z,66.51
2019-03-24T04:59:45.336Z,66.05
2019-03-24T05:03:09.427Z,65.68
2019-03-24T05:06:33.632Z,66.08
2019-03-24T05:09:57.607Z,65.65
2019-03-24T05:13:21.504Z,65.56
2019-03-24T05:16:45.705Z,66.07
2019-03-24T05:20:09.925Z,66.36
2019-03-24T05:23:33.986Z,66.67
2019-03-24T05:27:00.135Z,67.03
2019-03-24T05:30:24.051Z,66.61
2019-03-24T05:33:47.982Z,66.12
2019-03-24T05:37:11.858Z,66.08
2019-03-24T05:40:35.813Z,66.37
2019-03-24T05:43:59.764Z,66.87
2019-03-24T05:47:23.708Z,66.75
2019-03-24T05:50:47.863Z,66.92
2019-03-24T05:54:12.895Z,67.79
2019-03-24T05:57:37.361Z,67.02
2019-03-24T06:01:01.440Z,67.22
2019-03-24T06:04:25.764Z,68.18
2019-03-24T06:07:49.905Z,67.88
2019-03-24T06:11:13.949Z,68.48
2019-03-24T06:14:37.918Z,69.55
2019-03-24T06:18:01.886Z,68.74
2019-03-24T06:21:27.264Z,68.92
2019-03-24T06:24:51.847Z,68.39
2019-03-24T06:28:18.119Z,68.84
2019-03-24T06:31:42.421Z,68.68
2019-03-24T06:35:06.812Z,69.21
2019-03-24T06:38:30.854Z,68.76
2019-03-24T06:41:55.065Z,68.66
2019-03-24T06:45:28.033Z,68.98
2019-03-24T06:48:45.072Z,68.64
2019-03-24T06:52:09.188Z,69.22
2019-03-24T06:55:33.786Z,69.17
2019-03-24T06:58:57.715Z,68.92
2019-03-24T07:02:21.591Z,69.05
2019-03-24T07:05:45.599Z,68.06
2019-03-24T07:09:09.502Z,68.51
2019-03-24T07:12:33.613Z,67.96
2019-03-24T07:15:57.880Z,67.52
2019-03-24T07:19:22.347Z,67.03
2019-03-24T07:22:46.977Z,67.37
2019-03-24T07:26:11.206Z,66.15
2019-03-24T07:29:35.395Z,65.58
2019-03-24T07:32:59.816Z,65.83
2019-03-24T07:36:23.762Z,65.96
2019-03-24T07:39:47.689Z,65.98
2019-03-24T07:43:11.539Z,65.02
2019-03-24T07:46:35.539Z,64.05
2019-03-24T07:49:59.575Z,64.92
2019-03-24T07:53:23.608Z,63.99
2019-03-24T07:56:47.946Z,63.26
2019-03-24T08:00:12.591Z,63.90
2019-03-24T08:03:38.727Z,63.84
2019-03-24T08:07:02.961Z,63.35
2019-03-24T08:10:26.869Z,63.15
2019-03-24T08:13:54.054Z,62.45
2019-03-24T08:17:17.207Z,61.73
2019-03-24T08:20:41.173Z,62.03
2019-03-24T08:24:05.103Z,61.41
2019-03-24T08:27:29.012Z,61.14
2019-03-24T08:30:52.966Z,61.03
2019-03-24T08:34:16.904Z,62.50
2019-03-24T08:37:40.794Z,61.03
2019-03-24T08:41:04.682Z,60.94
2019-03-24T08:44:28.571Z,60.13
2019-03-24T08:47:53.672Z,59.16
2019-03-24T08:51:17.571Z,59.52
2019-03-24T08:54:42.001Z,58.74
2019-03-24T08:58:06.162Z,61.29
2019-03-24T09:01:31.521Z,58.85
2019-03-24T09:04:55.489Z,58.71
2019-03-24T09:08:19.935Z,60.23
2019-03-24T09:11:43.964Z,63.25
2019-03-24T09:15:08.220Z,58.68
2019-03-24T09:18:32.174Z,58.61
2019-03-24T09:21:56.754Z,54.14
2019-03-24T09:25:22.539Z,56.38
2019-03-24T09:28:46.664Z,56.83
2019-03-24T09:32:10.733Z,54.36
2019-03-24T09:35:35.227Z,55.43
2019-03-24T09:38:59.495Z,53.94
2019-03-24T09:42:24.003Z,53.82
2019-03-24T09:45:47.894Z,53.63
2019-03-24T09:49:12.218Z,52.15
2019-03-24T09:52:36.101Z,49.81
2019-03-24T09:56:00.013Z,49.46
2019-03-24T09:59:23.942Z,47.63
2019-03-24T10:02:47.856Z,45.43
2019-03-24T10:06:11.783Z,49.82
2019-03-24T10:09:35.709Z,46.58
2019-03-24T10:12:59.689Z,44.24
2019-03-24T10:16:23.615Z,40.48
2019-03-24T10:19:47.523Z,38.71
2019-03-24T10:23:11.473Z,38.28
2019-03-24T10:26:38.695Z,37.28
2019-03-24T10:30:02.767Z,33.85
2019-03-24T10:33:27.363Z,37.07
2019-03-24T10:36:51.315Z,33.25
2019-03-24T10:40:15.380Z,32.39
2019-03-24T10:43:39.380Z,32.58
2019-03-24T10:47:03.311Z,33.23
2019-03-24T10:50:33.289Z,32.13
2019-03-24T10:53:57.972Z,29.36
2019-03-24T10:57:21.954Z,33.88
2019-03-24T11:00:47.158Z,33.23
2019-03-24T11:04:11.497Z,29.84
2019-03-24T11:07:35.574Z,29.18
2019-03-24T11:11:00.945Z,29.02
2019-03-24T11:14:24.929Z,28.88
2019-03-24T11:17:49.644Z,34.47
2019-03-24T11:21:18.551Z,29.05
2019-03-24T11:24:42.691Z,27.99
2019-03-24T11:28:06.747Z,30.00
2019-03-24T11:31:30.710Z,28.48
2019-03-24T11:34:54.608Z,30.99
2019-03-24T11:38:18.735Z,28.20
2019-03-24T11:41:42.874Z,30.76
2019-03-24T11:45:08.154Z,27.74
2019-03-24T11:48:32.058Z,26.45
2019-03-24T11:51:55.936Z,26.25
2019-03-24T11:55:20.005Z,25.42
2019-03-24T11:58:44.178Z,26.84
2019-03-24T12:02:08.108Z,26.23
2019-03-24T12:05:32.106Z,25.56
2019-03-24T12:08:56.037Z,27.65
2019-03-24T12:12:19.905Z,26.10
2019-03-24T12:15:43.842Z,24.17
2019-03-24T12:19:07.744Z,21.92
2019-03-24T12:22:31.712Z,23.23
2019-03-24T12:25:55.646Z,23.76
2019-03-24T12:29:19.578Z,21.35
2019-03-24T12:32:43.529Z,25.59
2019-03-24T12:36:07.418Z,25.45
2019-03-24T12:39:31.291Z,27.37
2019-03-24T12:42:55.385Z,28.21
2019-03-24T12:46:19.910Z,26.13
2019-03-24T12:49:43.823Z,25.32
2019-03-24T12:53:07.702Z,22.58
2019-03-24T12:56:31.723Z,24.26
2019-03-24T12:59:56.111Z,26.63
2019-03-24T13:03:20.173Z,28.38
2019-03-24T13:06:44.237Z,27.66
2019-03-24T13:10:10.756Z,27.77
2019-03-24T13:13:35.168Z,28.30
2019-03-24T13:16:59.115Z,26.42
2019-03-24T13:20:36.519Z,24.23
2019-03-24T13:23:49.073Z,25.11
2019-03-24T13:27:13.038Z,24.80
2019-03-24T13:30:37.038Z,24.53
2019-03-24T13:34:00.987Z,23.22
2019-03-24T13:37:25.337Z,22.90
2019-03-24T13:40:49.242Z,19.65
2019-03-24T13:44:13.603Z,19.07
2019-03-24T13:47:37.635Z,18.91
2019-03-24T13:51:01.923Z,19.29
2019-03-24T13:54:25.919Z,18.09
2019-03-24T13:57:49.816Z,19.57
2019-03-24T14:01:14.314Z,20.49
2019-03-24T14:04:38.220Z,19.66
2019-03-24T14:08:02.223Z,19.96
2019-03-24T14:11:26.364Z,18.12
2019-03-24T14:14:50.307Z,17.70
2019-03-24T14:18:14.917Z,17.88
2019-03-24T14:21:38.912Z,19.22
2019-03-24T14:25:03.576Z,20.28
2019-03-24T14:28:27.746Z,22.39
2019-03-24T14:31:51.722Z,20.03
2019-03-24T14:35:15.703Z,20.89
2019-03-24T14:38:40.104Z,18.28
2019-03-24T14:42:04.440Z,18.73
2019-03-24T14:45:28.386Z,19.68
2019-03-24T14:48:52.409Z,20.69
2019-03-24T14:52:16.463Z,20.67
2019-03-24T14:55:40.337Z,21.16
2019-03-24T14:59:04.207Z,17.06
2019-03-24T15:02:28.191Z,19.22
2019-03-24T15:05:52.104Z,19.75
2019-03-24T15:09:16.060Z,19.45
2019-03-24T15:12:40.238Z,19.79
2019-03-24T15:16:04.153Z,17.39
2019-03-24T15:19:28.159Z,19.86
2019-03-24T15:22:52.057Z,19.79
2019-03-24T15:26:15.984Z,20.81
2019-03-24T15:29:40.307Z,19.22
2019-03-24T15:33:04.392Z,19.59
2019-03-24T15:36:28.475Z,19.69
2019-03-24T15:39:52.400Z,19.25
2019-03-24T15:43:16.574Z,19.52
2019-03-24T15:46:40.945Z,19.98
2019-03-24T15:50:07.827Z,19.97
2019-03-24T15:53:31.759Z,19.62
2019-03-24T15:56:55.652Z,17.83
2019-03-24T16:00:41.670Z,19.14
2019-03-24T16:04:05.608Z,17.66
2019-03-24T16:07:29.525Z,19.22
2019-03-24T16:10:53.446Z,21.04
2019-03-24T16:14:20.332Z,19.20
2019-03-24T16:17:44.433Z,20.30
2019-03-24T16:21:08.579Z,20.78
2019-03-24T16:24:33.047Z,21.26
2019-03-24T16:27:57.085Z,20.52
2019-03-24T16:31:21.431Z,20.29
2019-03-24T16:34:45.479Z,21.46
2019-03-24T16:38:09.482Z,21.96
2019-03-24T16:41:33.479Z,21.87
2019-03-24T16:44:57.557Z,22.17
2019-03-24T16:48:21.630Z,21.99
2019-03-24T16:51:45.612Z,22.19
2019-03-24T16:55:13.313Z,23.82
2019-03-24T16:58:37.485Z,26.91
2019-03-24T17:02:02.105Z,29.20
2019-03-24T17:05:27.370Z,33.06
2019-03-24T17:08:51.285Z,33.03
2019-03-24T17:12:15.253Z,34.34
2019-03-24T17:15:40.232Z,32.97
2019-03-24T17:19:04.467Z,33.14
2019-03-24T17:22:30.230Z,34.34
2019-03-24T17:25:54.230Z,35.00
2019-03-24T17:29:18.416Z,35.76
2019-03-24T17:32:42.486Z,36.58
2019-03-24T17:36:06.416Z,38.41
2019-03-24T17:39:30.509Z,37.25
2019-03-24T17:42:55.021Z,40.18
2019-03-24T17:46:19.581Z,40.02
2019-03-24T17:49:43.846Z,38.69
2019-03-24T17:53:08.041Z,39.29
2019-03-24T17:56:32.106Z,40.27
2019-03-24T17:59:56.620Z,40.60
2019-03-24T18:03:20.778Z,41.66
2019-03-24T18:06:44.856Z,41.17
2019-03-24T18:10:10.093Z,42.50
2019-03-24T18:13:34.218Z,42.37
2019-03-24T18:16:58.271Z,44.17
2019-03-24T18:20:40.253Z,42.67
2019-03-24T18:24:04.730Z,44.04
2019-03-24T18:27:28.795Z,43.89
2019-03-24T18:30:52.821Z,44.08
2019-03-24T18:34:19.872Z,44.58
2019-03-24T18:37:43.953Z,44.18
2019-03-24T18:41:07.946Z,45.29
2019-03-24T18:44:35.072Z,44.65
2019-03-24T18:47:59.624Z,44.79
2019-03-24T18:51:23.709Z,45.83
2019-03-24T18:54:47.644Z,46.25
2019-03-24T18:58:12.482Z,45.90
2019-03-24T19:01:37.038Z,44.51
2019-03-24T19:05:04.744Z,44.96
2019-03-24T19:08:28.721Z,46.01
2019-03-24T19:11:52.797Z,44.37
2019-03-24T19:15:17.206Z,43.44
2019-03-24T19:18:41.469Z,45.60
2019-03-24T19:22:06.638Z,45.56
2019-03-24T19:25:30.969Z,46.81
2019-03-24T19:28:56.740Z,48.11
2019-03-24T19:32:22.033Z,48.34
2019-03-24T19:35:46.053Z,48.43
2019-03-24T19:39:10.610Z,47.71
2019-03-24T19:42:35.163Z,47.71
2019-03-24T19:45:59.754Z,47.26
2019-03-24T19:49:23.983Z,47.92
2019-03-24T19:52:48.048Z,49.22
2019-03-24T19:56:12.330Z,47.67
2019-03-24T19:59:36.684Z,47.78
2019-03-24T20:03:01.668Z,48.90
2019-03-24T20:06:25.856Z,49.01
2019-03-24T20:09:50.598Z,49.52
2019-03-24T20:13:14.801Z,48.57
2019-03-24T20:16:39.815Z,48.98
2019-03-24T20:20:06.389Z,48.68
2019-03-24T20:23:30.755Z,50.54
2019-03-24T20:26:55.250Z,50.70
2019-03-24T20:30:20.709Z,51.67
2019-03-24T20:33:46.169Z,51.70
2019-03-24T20:37:10.215Z,52.19
2019-03-24T20:40:34.317Z,50.75
2019-03-24T20:44:01.379Z,52.44
2019-03-24T20:47:25.490Z,53.89
2019-03-24T20:50:50.213Z,53.29
2019-03-24T20:54:14.296Z,52.72
2019-03-24T20:57:38.475Z,54.33
2019-03-24T21:01:03.042Z,53.48
2019-03-24T21:04:27.083Z,52.63
2019-03-24T21:07:51.488Z,53.48
2019-03-24T21:11:15.732Z,54.42
2019-03-24T21:14:39.695Z,55.62
2019-03-24T21:18:03.730Z,55.67
2019-03-24T21:21:27.710Z,55.80
2019-03-24T21:24:51.664Z,56.11
2019-03-24T21:28:15.764Z,56.57
2019-03-24T21:31:39.845Z,56.18
2019-03-24T21:35:04.608Z,56.94
2019-03-24T21:38:28.617Z,57.84
2019-03-24T21:41:52.639Z,57.62
2019-03-24T21:45:16.557Z,58.00
2019-03-24T21:48:40.588Z,58.12
2019-03-24T21:52:04.538Z,58.28
2019-03-24T21:55:29.989Z,57.45
2019-03-24T21:58:53.927Z,57.83
2019-03-24T22:02:17.924Z,58.22
2019-03-24T22:05:41.834Z,58.50
2019-03-24T22:09:07.841Z,58.68
2019-03-24T22:12:31.875Z,59.17
2019-03-24T22:15:55.871Z,58.90
2019-03-24T22:19:19.743Z,59.47
2019-03-24T22:22:43.654Z,59.44
2019-03-24T22:26:07.644Z,59.36
2019-03-24T22:29:31.558Z,59.62
2019-03-24T22:32:55.503Z,60.55
2019-03-24T22:36:19.382Z,59.78
2019-03-24T22:39:43.316Z,59.82
2019-03-24T22:43:07.445Z,60.28
2019-03-24T22:46:31.312Z,60.29
2019-03-24T22:49:55.627Z,60.04
2019-03-24T22:53:19.518Z,60.18
2019-03-24T22:56:43.410Z,58.26
2019-03-24T23:00:15.480Z,57.88
2019-03-24T23:03:41.308Z,58.03
2019-03-24T23:07:05.288Z,58.74
2019-03-24T23:10:29.288Z,57.81
2019-03-24T23:13:53.240Z,57.96
2019-03-24T23:17:17.160Z,59.31
2019-03-24T23:20:41.105Z,59.13
2019-03-24T23:24:14.940Z,59.09
2019-03-24T23:27:31.109Z,58.74
2019-03-24T23:30:55.534Z,59.06
2019-03-24T23:34:19.539Z,58.87
2019-03-24T23:37:43.583Z,59.59
2019-03-24T23:41:07.631Z,58.86
2019-03-24T23:44:32.029Z,60.63
2019-03-24T23:47:55.974Z,59.90
2019-03-24T23:51:21.174Z,60.83
2019-03-24T23:54:45.107Z,61.88
2019-03-24T23:58:09.008Z,61.26
